No particular awareness of the weather is required.    There are no Weather-warnings

My Other Sites:

SYKIA HOMEWEATHERSTATIONsikeaweather.alinos.eu

SYKIA METEOTEMPLATEsykiameteo.alinos.eu

alinos.eualinos.eu



Nearby METAR Reports

   
LGEL - Elefsis (hel-Afb, Greece
Distance from station: E 77 km
Updated: 25-03-2019 12:20
Clear  
Clear  
   Wind: South 18.5 km/h
Wind: South 18.5 km/h
Temperature: 18°C
Dew Point: 3°C
Humidity: 37%
Barometer: 1014 hPa
Visibility: More than 10 km
Cloud details: Clear
LGEL 251020Z 19010KT CAVOK 18/03 Q1014
LGRX - Araxos (civ/Afb), Greece
Distance from station: W 110 km
Updated: 25-03-2019 12:20
Clear  
Clear  
   Wind: WNW 7.4 km/h
Wind: WNW 7.4 km/h
Temperature: 19°C
Dew Point: 9°C
Humidity: 52%
Barometer: 1015 hPa
Visibility: More than 10 km
Cloud details: Clear
LGRX 251020Z 29004KT CAVOK 19/09 Q1015
LGAV - Athens/Elef-Ven, Greece
Distance from station: E 113 km
Updated: 25-03-2019 12:20
Clear  
Clear  
   Wind: ENE 25.9 km/h
Wind: ENE 25.9 km/h
Temperature: 17°C
Dew Point: -1°C
Humidity: 30%
Barometer: 1015 hPa
Visibility: More than 10 km
Cloud details: Clear
LGAV 251020Z 06014KT CAVOK 17/M01 Q1015 NOSIG
LGAD - Andravida (civ/A, Greece
Distance from station: W 124 km
Updated: 25-03-2019 12:20
Clear  
Clear  
   Wind: NW 11.1 km/h
Wind: NW 11.1 km/h
Temperature: 19°C
Dew Point: 7°C
Humidity: 46%
Barometer: 1015 hPa
Visibility: More than 10 km
Cloud details: Clear
LGAD 251020Z 32006KT CAVOK 19/07 Q1015
LGKL - Kalamata (hel-Af, Greece
Distance from station: SSW 124 km
Updated: 25-03-2019 12:20
Clear  
Clear  
   Wind: South 7.4 km/h
Wind: South 7.4 km/h
Temperature: 18°C
Dew Point: 5°C
Humidity: 43%
Barometer: 1015 hPa
Visibility: More than 10 km
Cloud details: Clear
LGKL 251020Z 17004KT CAVOK 18/05 Q1015
LGBL - Nea Anchialos, Greece
Distance from station: N 129 km
Updated: 25-03-2019 12:20
Clear  
Clear  
   Wind: East 13 km/h
Wind: East 13 km/h
Temperature: 16°C
Dew Point: 6°C
Humidity: 52%
Barometer: 1014 hPa
Visibility: More than 10 km
Cloud details: Clear
LGBL 251020Z 08007KT CAVOK 16/06 Q1014

Script developed by  Saratoga-weather.org Adapted for the template by  Weerstation Leuven

You find our weather info also at:

European Weather Network

Weather Underground

AWEKAS

Citizen Weather Observer Program (CWOP)

HAMweather, WeatherForYou, PWS Weather

UK Metoffice

Equipment we use:

Weather-station
Davis Wireless Vantage Pro2

Davis Wireless Vantage Pro2